Pactolus, North Carolina
Current Conditions -  °F | °C
As of 10:55 PM on Thursday 18 Dec 2014 (Local Time) from KPGV Reporting Station
Broken Clouds Broken Clouds  
Wind Chill: 36°   Ceiling: 7500
Heat Index: 36°   Visibility: 10mi
Dew Point: 34°   Wind: 0mph
Humidity: 93%   Direction: NA
Pressure: 30.11"   Gusts: NA
Location:  35.6768°N, 77.3482°W
Report Text: KPGV 190355Z AUTO 00000KT 10SM BKN075 02/01 A3011 RMK AO2
Loading
Personal Weather Stations






























Interactive Weather Map New forecast layout! Learn more

10-Day Weather Forecast

Advertisements
Track Severe Weather on mobile